Station: Maitland  

  Atmospheric Gas Attenuation - ITU Rec 676-11   ----------------- dB/100km -----------------
Date Time Temp RH % AH g/m3 Dew Point Wind Direction Speed kph Gust kph Barometer mB Rainfall Since 9am 24GHz 47GHz 76GHz 122GHz 134GHz 241GHz
08/05 09:00 13.9 99 11.87 13.7 2 1032.1 0 26.6 32.2 54.7 143.9 146.1 505.0
07/05 09:00 13 95 10.77 12.3 6 1031.2 2 24.3 30.5 50.3 132.2 131.4 453.6
06/05 09:00 14 99 11.94 13.8 2 1024.5 0.4 26.7 32.0 54.5 143.6 146.1 505.1
05/05 09:00 13 86 9.75 10.7 6 1024.1 5 22.1 28.5 45.5 119.5 116.1 400.2
04/05 09:00 13.4 100 11.63 13.4 6 1015.7 21 26.1 31.3 53.1 139.8 141.7 489.6
02/05 09:00 18.2 99 15.39 18 13 1009.5 0.6 33.9 36.1 66.3 175.3 187.3 649.2
30/04 09:00 21.5 99 18.67 21.3 2 1022.8 0 40.6 41.5 79.9 211.1 231.8 804.6
29/04 09:00 22 99 19.21 21.8 6 1025 0 41.7 42.5 82.2 217.2 239.3 830.9
28/04 09:00 19.1 98 16.06 18.8 6 1023.8 0 35.2 37.6 69.6 183.7 197.3 684.3
27/04 09:00 16.4 94 13.12 15.5 6 1025.2 0.8 29.1 33.3 58.2 153.3 158.9 550.1
24/04 09:00 21.2 98 18.16 20.9 6 1025.6 0 39.5 40.8 77.8 205.7 224.9 780.7
22/04 09:00 22.2 97 19.04 21.7 6 1022.6 0 41.3 41.9 80.9 214.0 235.6 817.8
21/04 09:00 21.8 96 18.42 21.2 6 1022.9 0 40.0 40.9 78.3 207.0 226.9 787.5
20/04 09:00 17.5 93 13.86 16.3 2 1025.3 0 30.6 34.2 60.7 160.1 167.6 580.7
17/04 09:00 16.6 86 12.15 14.2 6 1021.4 0 27.0 31.3 53.5 140.8 143.8 497.6
16/04 09:00 18.8 94 15.14 17.8 6 1018.4 0 33.3 35.8 65.2 172.1 183.1 634.9
15/04 09:00 16.3 90 12.49 14.7 2 1026.3 0 27.7 32.2 55.5 146.0 149.9 518.7
14/04 09:00 15.5 99 13.09 15.3 2 1025.3 0 29.1 33.6 58.7 154.8 160.4 555.1
13/04 09:00 14.9 92 11.73 13.7 2 1026.3 6 26.2 31.4 53.0 139.6 141.5 489.1
10/04 09:00 17 96 13.89 16.3 6 1016 12 30.7 34.1 60.7 160.2 168.1 582.1
09/04 09:00 17.2 100 14.64 17.2 2 1012.9 11 32.3 35.3 63.9 168.6 178.6 619.0
08/04 09:00 14.9 100 12.74 14.9 2 1014.8 0.6 28.4 32.7 57.0 150.3 155.1 536.8
07/04 09:00 17 90 13.02 15.3 2 1018.8 8 28.9 32.6 56.9 150.1 155.4 538.1
02/04 09:00 15.3 99 12.93 15.1 2 1024.6 0 28.8 33.3 58.1 153.1 158.3 547.9
01/04 09:00 17.1 98 14.26 16.8 2 1018.9 3 31.5 34.9 62.5 165.0 173.8 602.2
31/03 09:00 20.6 98 17.54 20.3 6 1013.1 0 38.3 39.3 74.6 197.3 214.9 745.8
30/03 09:00 1013.1
27/03 09:00 13.4 97 11.28 12.9 2 1026.6 0.4 25.3 31.1 52.1 137.0 137.7 475.6
26/03 09:00 15.9 96 13 15.2 6 1021.2 1 28.9 33.1 57.8 152.3 157.7 545.9
25/03 09:00 21.3 100 18.64 21.3 2 1015.6 0 40.6 41.3 79.5 210.1 230.8 801.2
24/03 09:00 24.9 99 22.66 24.8 2 1014.7 0 48.8 47.4 95.6 253.0 284.6 988.6
23/03 09:00 22.4 97 19.26 21.9 6 1018.3 0 41.8 42.1 81.5 215.6 237.8 825.6
20/03 09:00 17 98 14.18 16.7 2 1019.2 0 31.3 34.8 62.2 164.2 172.9 598.8
19/03 09:00 18.5 93 14.71 17.4 2 1019.4 0.8 32.4 35.1 63.5 167.5 177.4 615.0
18/03 09:00 18.5 99 15.66 18.3 6 1018.6 10 34.4 36.9 67.9 179.3 191.9 665.4
17/03 09:00 17 100 14.47 17 6 1015.9 19 32.0 35.2 63.4 167.4 176.9 612.8
16/03 09:00 17 99 14.32 16.8 2 1016.2 1 31.7 34.9 62.7 165.6 174.6 605.0
13/03 09:00 14.9 96 12.24 14.2 6 1025.8 0 27.3 32.3 55.3 145.6 148.9 515.1
12/03 09:00 15.5 97 12.82 15 6 1018.1 0 28.5 32.8 57.1 150.5 155.5 538.1
11/03 09:00 18.4 96 15.1 17.8 6 1009.9 0 33.3 35.5 64.8 171.2 182.4 632.2
10/03 09:00 21.1 99 18.24 20.9 2 1011.6 0 39.8 40.4 77.4 204.8 224.4 778.7
06/03 09:00 18.4 95 14.94 17.6 2 1016 0.1 32.9 35.5 64.4 170.1 180.7 626.5
05/03 09:00 16.9 96 13.81 16.2 2 1015.7 0.1 30.6 34.0 60.4 159.4 167.0 578.6
04/03 09:00 16.5 94 13.2 15.5 2 1017.1 0 29.3 33.1 58.0 153.0 158.9 550.3
03/03 09:00 15.7 97 12.98 15.2 2 1015.3 0.4 28.9 32.9 57.5 151.7 157.1 543.9
02/03 09:00 16.8 98 14.01 16.5 6 1010.9 52 31.0 34.2 61.1 161.4 169.7 587.8
27/02 09:00 23.6 99 21.05 23.5 2 1010.4 0 45.5 44.7 88.6 234.6 261.7 908.9
26/02 09:00 20.2 96 16.78 19.6 6 1014.9 0 36.7 38.1 71.4 188.8 204.3 709.0
25/02 09:00 18.8 99 15.94 18.6 9 1016.2 0 35.0 37.2 68.8 181.8 195.2 676.8
24/02 09:00 19.4 98 16.35 19.1 6 1011.5 0 35.9 37.5 69.9 184.8 199.3 691.4
23/02 09:00 17.5 98 14.61 17.2 9 1012.2 0.4 32.3 35.1 63.4 167.5 177.3 614.6
20/02 09:00 25.2 98 22.81 24.9 2 1012.6 0 49.1 47.5 95.8 253.7 285.6 992.0
19/02 09:00 18.2 94 14.61 17.2 2 1017.2 0 32.2 35.0 63.1 166.7 176.3 611.2
17/02 09:00 21.9 95 18.33 21 2 1005.8 0 39.9 39.9 76.7 202.9 222.5 772.3
16/02 09:00 28.4 96 26.69 27.7 2 1009 56.9 53.5 111.6 295.6 338.0 1174.2
13/02 09:00 16 98 13.35 15.7 6 1017.9 0 29.6 33.6 59.1 155.9 162.4 562.1
12/02 09:00 16 99 13.49 15.8 6 1015.4 1 30.0 33.7 59.6 157.3 164.2 568.4
11/02 09:00 30.4 98 30.37 30.1 2 1006.8 0 64.5 60.1 128.4 340.3 393.3 1366.2
10/02 09:00 22.4 93 18.47 21.2 2 1013.8 0 40.1 40.3 77.4 204.6 224.4 779.1
09/02 09:00 20.6 96 17.18 20 2 1013.7 0 37.5 38.7 72.9 192.7 209.3 726.4
06/02 09:00 19.3 95 15.76 18.5 2 1018.7 0 34.6 36.7 67.7 178.7 191.4 663.8
05/02 09:00 19 98 15.97 18.7 6 1019.2 0 35.0 37.3 69.0 182.1 195.5 678.1
04/02 09:00 26 99 24.1 25.9 2 1015.9 0 51.7 49.9 101.8 269.4 305.0 1059.4
03/02 09:00 22.1 98 19.13 21.8 2 1018 0 41.5 41.9 81.2 214.7 236.6 821.4
02/02 09:00 15.3 98 12.8 15 6 1024 0 28.5 33.1 57.5 151.4 156.3 540.8
30/01 09:00 30.4 98 30.37 30 9 1011 0 64.4 60.3 128.7 341.2 394.3 1369.6
29/01 09:00 21.4 98 18.37 21.1 6 1013.8 0 40.0 40.6 77.9 206.0 225.9 784.0
28/01 09:00 22.6 90 18.08 20.9 6 1014.6 0 39.2 39.5 75.3 199.2 217.8 756.2
27/01 09:00 38.2 99 46.17 38 2 1004 0 95.9 90.9 206.5 547.4 648.7 2250.7
23/01 09:00 22.2 98 19.24 21.9 2 1011.6 0 41.8 41.8 81.2 214.8 237.0 822.9
22/01 09:00 16.4 98 13.68 16.1 6 1016.4 0 30.3 34.0 60.2 158.9 166.3 575.8
21/01 09:00 18 95 14.59 17.2 6 1012.4 0 32.2 34.8 62.9 166.2 175.9 609.6
20/01 09:00 18.6 99 15.76 18.4 2 1010.3 0 34.7 36.7 67.8 179.1 192.1 666.0
19/01 09:00 20.9 99 18.03 20.7 2 1006.4 0 39.4 39.8 76.3 201.8 220.8 766.4
16/01 09:00 17.6 99 14.85 17.4 9 1013.8 0 32.8 35.5 64.6 170.5 181.0 627.3
15/01 09:00 15.9 93 12.59 14.7 6 1013.8 0 28.0 32.0 55.5 146.4 150.8 521.7
14/01 09:00 20.4 92 16.27 19 2 1010 0 35.6 36.8 68.5 181.2 195.2 677.2
13/01 09:00 18.3 96 15.01 17.6 2 1013.5 0 33.1 35.5 64.7 170.9 181.7 629.9
12/01 09:00 18.8 97 15.62 18.3 6 1015.7 0 34.3 36.6 67.3 177.7 190.1 659.3
09/01 09:00 24.7 98 22.18 24.3 2 1005 0 47.9 46.1 92.7 245.4 275.5 957.1
08/01 09:00 32 98 33.09 31.7 2 1008.8 0 69.9 65.1 141.1 374.1 435.0 1511.0
07/01 09:00 35.1 99 39.36 35 2 1011 0 82.4 77.4 172.2 456.3 536.4 1862.1
06/01 09:00 26.9 95 24.32 26.1 2 1014.1 0 52.1 49.7 101.5 268.9 304.6 1058.4
05/01 09:00 20.6 89 15.93 18.7 2 1015 0 34.8 36.3 67.1 177.2 190.2 659.8
02/01 09:00 20.8 88 15.93 18.7 2 1013.3 0 34.8 36.2 66.8 176.5 189.5 657.3
31/12 09:00 16.6 91 12.85 15.2 6 1017 0 28.5 32.4 56.3 148.6 153.5 531.5
30/12 09:00 17.9 96 14.66 17.2 4 1015.2 0 32.3 35.1 63.5 167.7 177.5 615.3
29/12 09:00 31.7 98 32.57 31.4 2 1013.3 0 68.8 64.4 139.1 368.6 428.2 1487.2
24/12 09:00 17.2 97 14.2 16.7 2 1019.1 0 31.4 34.7 62.2 164.0 172.7 598.3
23/12 09:00 17 93 13.46 15.8 2 1018 0 29.8 33.4 58.9 155.2 161.9 560.5
22/12 09:00 17 98 14.18 16.7 2 1014.4 0 31.4 34.6 62.0 163.6 172.2 596.8
19/12 09:00 25 98 22.56 24.7 2 1009.9 0 48.6 47.0 94.6 250.5 281.7 978.4
18/12 09:00 33.5 39 14.26 17.8 4 1012.9 0 30.3 28.7 50.4 133.1 139.9 485.9
17/12 09:00 28.2 98 26.95 27.8 4 1017.1 0 57.4 54.6 113.9 301.8 345.2 1199.2
16/12 09:00 17.7 98 14.78 17.4 4 1021.7 0 32.6 35.7 64.6 170.5 180.7 626.3
15/12 09:00 16.2 96 13.24 15.5 4 1022.4 0 29.4 33.5 58.7 154.8 160.8 556.7
12/12 09:00 28.8 98 27.85 28.4 6 1008.9 0.4 59.3 55.8 117.2 310.7 356.5 1238.7
11/12 09:00 22 95 18.44 21.2 7 1015.9 0 40.1 40.5 77.8 205.6 225.5 782.8
10/12 09:00 18.2 96 14.92 17.5 4 1019.3 0 32.8 35.7 64.7 170.8 181.3 628.5
09/12 09:00 20.7 90 16.2 19 7 1016.3 0 35.4 36.9 68.3 180.5 194.2 673.8

Last Refresh: 08-May-2026 12:08:31

Bureau of Meteorology